Terminal Aerodrome Forecast
Issued by NWS

Home | Current Version | Previous Version | Text Only | Print | Product List | Glossary On
Versions: 1 2 3 4 5 6 7 8 9 10 11 12 13 14 15 16 17 18
000
FTUS44 KCRP 250800 AAA
TAFALI
TAF AMD
KALI 250834Z 2509/2606 06004KT 6SM BR OVC008
      TEMPO 2509/2513 1/2SM FG VV002
     FM251600 10008KT P6SM BKN015
     FM251800 11010KT P6SM SCT035
     FM260300 14010KT 6SM BR SCT010=

USA.gov is the U.S. government's official web portal to all federal, state and local government web resources and services.